createdAt,value
2022-08-03T00:07:53.465Z,18.5
2022-08-03T00:19:53.545Z,18.2
2022-08-03T00:32:00.189Z,18.2
2022-08-03T00:43:53.478Z,18.2
2022-08-03T00:55:53.442Z,18.3
2022-08-03T01:07:53.465Z,18.3
2022-08-03T01:19:53.470Z,18.0
2022-08-03T01:33:02.785Z,17.7
2022-08-03T01:44:26.193Z,17.9
2022-08-03T01:55:53.472Z,17.5
2022-08-03T02:07:53.451Z,17.1
2022-08-03T02:19:53.466Z,16.9
2022-08-03T02:31:53.457Z,16.7
2022-08-03T02:44:07.222Z,16.5
2022-08-03T02:55:53.472Z,16.3
2022-08-03T03:07:53.485Z,16.1
2022-08-03T03:19:53.530Z,16.1
2022-08-03T03:31:53.507Z,16.2
2022-08-03T03:43:53.511Z,16.2
2022-08-03T03:55:59.530Z,16.1
2022-08-03T04:07:53.450Z,16.3
2022-08-03T04:19:53.477Z,16.4
2022-08-03T04:31:53.455Z,16.8
2022-08-03T04:43:53.466Z,16.9
2022-08-03T04:55:53.434Z,16.9
2022-08-03T05:07:53.436Z,16.6
2022-08-03T05:19:53.410Z,17.1
2022-08-03T05:31:53.444Z,17.9
2022-08-03T05:43:53.462Z,18.4
2022-08-03T05:55:56.975Z,18.9
2022-08-03T06:07:53.456Z,20.7
2022-08-03T06:19:53.472Z,21.6
2022-08-03T06:31:53.462Z,22.5
2022-08-03T06:44:03.928Z,22.7
2022-08-03T06:55:54.882Z,23.1
2022-08-03T07:07:53.457Z,23.5
2022-08-03T07:19:53.490Z,24.0
2022-08-03T07:31:53.453Z,24.8
2022-08-03T07:43:53.454Z,25.4
2022-08-03T07:55:53.470Z,26.0
2022-08-03T08:07:53.453Z,26.6
2022-08-03T08:19:53.614Z,27.0
2022-08-03T08:31:53.462Z,27.8
2022-08-03T08:43:58.126Z,28.5
2022-08-03T08:55:59.365Z,28.3
2022-08-03T09:07:53.456Z,29.1
2022-08-03T09:20:03.609Z,29.3
2022-08-03T09:31:53.457Z,29.6
2022-08-03T09:43:53.459Z,30.1
2022-08-03T09:56:33.220Z,29.9
2022-08-03T10:07:53.460Z,29.8
2022-08-03T10:19:53.467Z,29.4
2022-08-03T10:31:57.282Z,29.7
2022-08-03T10:43:53.471Z,30.5
2022-08-03T10:55:53.460Z,29.9
2022-08-03T11:07:54.767Z,30.5
2022-08-03T11:19:57.662Z,31.3
2022-08-03T11:31:53.459Z,31.1
2022-08-03T11:43:53.466Z,31.1
2022-08-03T11:55:53.449Z,30.3
2022-08-03T12:08:04.421Z,31.1
2022-08-03T12:19:53.479Z,31.1
2022-08-03T12:31:53.407Z,31.2
2022-08-03T12:43:53.470Z,31.7
2022-08-03T12:55:57.662Z,31.8
2022-08-03T13:07:53.459Z,31.7
2022-08-03T13:19:53.484Z,31.4
2022-08-03T13:31:53.688Z,31.9
2022-08-03T13:44:12.063Z,32.5
2022-08-03T13:55:53.439Z,32.5
2022-08-03T14:07:55.134Z,31.9
2022-08-03T14:19:54.138Z,31.2
2022-08-03T14:32:09.642Z,31.2
2022-08-03T14:44:01.333Z,32.3
2022-08-03T14:55:53.532Z,32.2
2022-08-03T15:07:53.452Z,32.4
2022-08-03T15:20:02.165Z,31.8
2022-08-03T15:31:53.478Z,32.2
2022-08-03T15:43:53.430Z,32.0
2022-08-03T15:55:53.466Z,32.1
2022-08-03T16:08:02.825Z,31.9
2022-08-03T16:19:55.127Z,31.8
2022-08-03T16:31:53.447Z,31.4
2022-08-03T16:43:53.459Z,31.5
2022-08-03T16:55:54.373Z,31.4
2022-08-03T17:07:54.054Z,31.3
2022-08-03T17:19:55.173Z,31.3
2022-08-03T17:31:53.463Z,31.3
2022-08-03T17:44:15.738Z,31.2
2022-08-03T17:55:59.070Z,31.2
2022-08-03T18:07:59.505Z,30.8
2022-08-03T18:20:03.343Z,30.4
2022-08-03T18:32:01.532Z,30.1
2022-08-03T18:44:06.730Z,29.8
2022-08-03T18:56:01.857Z,29.3
2022-08-03T19:07:58.354Z,28.8
2022-08-03T19:19:53.464Z,28.6
2022-08-03T19:31:58.783Z,28.3
2022-08-03T19:43:57.681Z,28.0
2022-08-03T19:55:53.454Z,27.7
2022-08-03T20:07:53.465Z,27.1
2022-08-03T20:19:53.465Z,26.9
2022-08-03T20:31:53.439Z,26.1
2022-08-03T20:43:53.474Z,25.3
2022-08-03T20:56:02.175Z,25.1
2022-08-03T21:08:05.549Z,24.2
2022-08-03T21:19:53.522Z,24.0
2022-08-03T21:31:53.509Z,23.6
2022-08-03T21:43:53.500Z,23.7
2022-08-03T21:55:53.498Z,23.6
2022-08-03T22:07:53.568Z,23.1
2022-08-03T22:19:53.494Z,22.8
2022-08-03T22:31:58.916Z,22.5
2022-08-03T22:43:54.272Z,22.3
2022-08-03T22:55:53.493Z,22.3
2022-08-03T23:07:53.496Z,22.0
2022-08-03T23:19:53.735Z,21.6
2022-08-03T23:31:53.550Z,21.2
2022-08-03T23:43:54.370Z,21.0
2022-08-03T23:55:53.453Z,20.8
